sensor_id;sensor_type;location;lat;lon;timestamp;P1;durP1;ratioP1;P2;durP2;ratioP2
24425;SDS011;12611;44.446;26.000;2023-01-23T00:01:33;15.48;;;6.70;;
24425;SDS011;12611;44.446;26.000;2023-01-23T00:04:02;16.03;;;7.00;;
24425;SDS011;12611;44.446;26.000;2023-01-23T00:06:33;15.50;;;6.37;;
24425;SDS011;12611;44.446;26.000;2023-01-23T00:09:04;13.63;;;6.80;;
24425;SDS011;12611;44.446;26.000;2023-01-23T00:11:33;17.30;;;6.67;;
24425;SDS011;12611;44.446;26.000;2023-01-23T00:14:02;13.00;;;5.83;;
24425;SDS011;12611;44.446;26.000;2023-01-23T00:16:31;14.33;;;6.43;;
24425;SDS011;12611;44.446;26.000;2023-01-23T00:18:59;14.00;;;6.77;;
24425;SDS011;12611;44.446;26.000;2023-01-23T00:21:28;14.70;;;6.40;;
24425;SDS011;12611;44.446;26.000;2023-01-23T00:23:58;14.03;;;6.20;;
24425;SDS011;12611;44.446;26.000;2023-01-23T00:26:28;13.00;;;6.35;;
24425;SDS011;12611;44.446;26.000;2023-01-23T00:28:59;9.77;;;5.37;;
24425;SDS011;12611;44.446;26.000;2023-01-23T00:31:29;10.43;;;5.00;;
24425;SDS011;12611;44.446;26.000;2023-01-23T00:33:59;12.20;;;4.90;;
24425;SDS011;12611;44.446;26.000;2023-01-23T00:36:30;12.63;;;5.60;;
24425;SDS011;12611;44.446;26.000;2023-01-23T00:39:02;11.60;;;5.47;;
24425;SDS011;12611;44.446;26.000;2023-01-23T00:41:32;12.43;;;5.00;;
24425;SDS011;12611;44.446;26.000;2023-01-23T00:44:01;11.00;;;5.40;;
24425;SDS011;12611;44.446;26.000;2023-01-23T00:46:29;13.17;;;5.17;;
24425;SDS011;12611;44.446;26.000;2023-01-23T00:48:58;16.25;;;6.20;;
24425;SDS011;12611;44.446;26.000;2023-01-23T00:51:26;15.33;;;5.40;;
24425;SDS011;12611;44.446;26.000;2023-01-23T00:53:55;11.70;;;4.47;;
24425;SDS011;12611;44.446;26.000;2023-01-23T00:56:24;10.47;;;4.40;;
24425;SDS011;12611;44.446;26.000;2023-01-23T00:58:53;9.07;;;4.17;;
24425;SDS011;12611;44.446;26.000;2023-01-23T01:01:21;8.77;;;3.80;;
24425;SDS011;12611;44.446;26.000;2023-01-23T01:03:50;8.80;;;3.90;;
24425;SDS011;12611;44.446;26.000;2023-01-23T01:06:18;7.37;;;3.33;;
24425;SDS011;12611;44.446;26.000;2023-01-23T01:08:47;9.67;;;4.03;;
24425;SDS011;12611;44.446;26.000;2023-01-23T01:11:15;7.13;;;3.40;;
24425;SDS011;12611;44.446;26.000;2023-01-23T01:13:45;6.90;;;3.33;;
24425;SDS011;12611;44.446;26.000;2023-01-23T01:16:14;10.53;;;3.77;;
24425;SDS011;12611;44.446;26.000;2023-01-23T01:18:42;9.47;;;3.63;;
24425;SDS011;12611;44.446;26.000;2023-01-23T01:21:12;8.47;;;4.03;;
24425;SDS011;12611;44.446;26.000;2023-01-23T01:23:41;8.30;;;3.47;;
24425;SDS011;12611;44.446;26.000;2023-01-23T01:26:10;9.80;;;3.60;;
24425;SDS011;12611;44.446;26.000;2023-01-23T01:28:38;8.90;;;3.77;;
24425;SDS011;12611;44.446;26.000;2023-01-23T01:31:11;8.70;;;3.67;;
24425;SDS011;12611;44.446;26.000;2023-01-23T01:33:41;7.20;;;3.37;;
24425;SDS011;12611;44.446;26.000;2023-01-23T01:36:10;8.07;;;3.50;;
24425;SDS011;12611;44.446;26.000;2023-01-23T01:38:40;7.20;;;3.87;;
24425;SDS011;12611;44.446;26.000;2023-01-23T01:41:08;8.40;;;3.47;;
24425;SDS011;12611;44.446;26.000;2023-01-23T01:43:37;8.00;;;3.20;;
24425;SDS011;12611;44.446;26.000;2023-01-23T01:46:07;12.17;;;4.30;;
24425;SDS011;12611;44.446;26.000;2023-01-23T01:48:40;9.37;;;4.40;;
24425;SDS011;12611;44.446;26.000;2023-01-23T01:51:16;6.60;;;3.33;;
24425;SDS011;12611;44.446;26.000;2023-01-23T01:53:48;10.13;;;4.20;;
24425;SDS011;12611;44.446;26.000;2023-01-23T01:56:27;8.40;;;3.63;;
24425;SDS011;12611;44.446;26.000;2023-01-23T01:58:57;9.63;;;3.73;;
24425;SDS011;12611;44.446;26.000;2023-01-23T02:01:27;9.30;;;3.67;;
24425;SDS011;12611;44.446;26.000;2023-01-23T02:03:56;8.40;;;4.20;;
24425;SDS011;12611;44.446;26.000;2023-01-23T02:06:25;8.33;;;3.53;;
24425;SDS011;12611;44.446;26.000;2023-01-23T02:08:55;9.97;;;3.87;;
24425;SDS011;12611;44.446;26.000;2023-01-23T02:11:29;9.17;;;4.00;;
24425;SDS011;12611;44.446;26.000;2023-01-23T02:13:58;7.73;;;3.70;;
24425;SDS011;12611;44.446;26.000;2023-01-23T02:16:28;12.33;;;4.30;;
24425;SDS011;12611;44.446;26.000;2023-01-23T02:19:11;8.73;;;3.43;;
24425;SDS011;12611;44.446;26.000;2023-01-23T02:21:47;6.03;;;2.90;;
24425;SDS011;12611;44.446;26.000;2023-01-23T02:24:21;6.57;;;3.17;;
24425;SDS011;12611;44.446;26.000;2023-01-23T02:26:58;8.17;;;3.23;;
24425;SDS011;12611;44.446;26.000;2023-01-23T02:29:27;9.27;;;4.03;;
24425;SDS011;12611;44.446;26.000;2023-01-23T02:32:07;5.87;;;3.00;;
24425;SDS011;12611;44.446;26.000;2023-01-23T02:34:36;11.23;;;3.87;;
24425;SDS011;12611;44.446;26.000;2023-01-23T02:37:04;12.93;;;4.13;;
24425;SDS011;12611;44.446;26.000;2023-01-23T02:39:35;9.00;;;3.90;;
24425;SDS011;12611;44.446;26.000;2023-01-23T02:42:06;11.57;;;3.97;;
24425;SDS011;12611;44.446;26.000;2023-01-23T02:44:34;7.53;;;3.63;;
24425;SDS011;12611;44.446;26.000;2023-01-23T02:47:04;9.77;;;3.57;;
24425;SDS011;12611;44.446;26.000;2023-01-23T02:49:37;9.53;;;3.67;;
24425;SDS011;12611;44.446;26.000;2023-01-23T02:52:05;8.77;;;3.30;;
24425;SDS011;12611;44.446;26.000;2023-01-23T02:54:35;9.67;;;3.83;;
24425;SDS011;12611;44.446;26.000;2023-01-23T02:57:06;4.93;;;2.60;;
24425;SDS011;12611;44.446;26.000;2023-01-23T02:59:34;5.37;;;3.07;;
24425;SDS011;12611;44.446;26.000;2023-01-23T03:02:20;7.43;;;3.30;;
24425;SDS011;12611;44.446;26.000;2023-01-23T03:04:48;7.53;;;3.40;;
24425;SDS011;12611;44.446;26.000;2023-01-23T03:07:17;8.68;;;3.88;;
24425;SDS011;12611;44.446;26.000;2023-01-23T03:09:45;6.87;;;3.10;;
24425;SDS011;12611;44.446;26.000;2023-01-23T03:12:15;11.07;;;3.67;;
24425;SDS011;12611;44.446;26.000;2023-01-23T03:14:43;7.67;;;3.90;;
24425;SDS011;12611;44.446;26.000;2023-01-23T03:17:12;8.00;;;3.50;;
24425;SDS011;12611;44.446;26.000;2023-01-23T03:19:41;7.63;;;3.60;;
24425;SDS011;12611;44.446;26.000;2023-01-23T03:22:09;7.53;;;3.33;;
24425;SDS011;12611;44.446;26.000;2023-01-23T03:24:38;7.57;;;3.07;;
24425;SDS011;12611;44.446;26.000;2023-01-23T03:27:06;7.13;;;3.00;;
24425;SDS011;12611;44.446;26.000;2023-01-23T03:29:36;7.93;;;3.00;;
24425;SDS011;12611;44.446;26.000;2023-01-23T03:32:22;8.87;;;2.83;;
24425;SDS011;12611;44.446;26.000;2023-01-23T03:34:51;7.40;;;3.20;;
24425;SDS011;12611;44.446;26.000;2023-01-23T03:37:20;7.80;;;3.00;;
24425;SDS011;12611;44.446;26.000;2023-01-23T03:39:48;9.93;;;3.23;;
24425;SDS011;12611;44.446;26.000;2023-01-23T03:42:34;7.10;;;2.93;;
24425;SDS011;12611;44.446;26.000;2023-01-23T03:45:04;6.23;;;2.40;;
24425;SDS011;12611;44.446;26.000;2023-01-23T03:47:34;5.60;;;2.80;;
24425;SDS011;12611;44.446;26.000;2023-01-23T03:50:02;5.80;;;2.80;;
24425;SDS011;12611;44.446;26.000;2023-01-23T03:52:33;7.33;;;3.53;;
24425;SDS011;12611;44.446;26.000;2023-01-23T03:55:03;7.10;;;3.23;;
24425;SDS011;12611;44.446;26.000;2023-01-23T03:57:32;5.33;;;2.60;;
24425;SDS011;12611;44.446;26.000;2023-01-23T04:00:00;7.50;;;2.73;;
24425;SDS011;12611;44.446;26.000;2023-01-23T04:02:31;5.37;;;2.17;;
24425;SDS011;12611;44.446;26.000;2023-01-23T04:05:00;7.57;;;2.90;;
24425;SDS011;12611;44.446;26.000;2023-01-23T04:07:28;6.20;;;2.63;;
24425;SDS011;12611;44.446;26.000;2023-01-23T04:09:57;6.87;;;2.83;;
24425;SDS011;12611;44.446;26.000;2023-01-23T04:12:25;7.70;;;3.20;;
24425;SDS011;12611;44.446;26.000;2023-01-23T04:14:53;8.40;;;3.00;;
24425;SDS011;12611;44.446;26.000;2023-01-23T04:17:22;5.50;;;2.63;;
24425;SDS011;12611;44.446;26.000;2023-01-23T04:19:51;6.40;;;2.50;;
24425;SDS011;12611;44.446;26.000;2023-01-23T04:22:20;3.57;;;2.07;;
24425;SDS011;12611;44.446;26.000;2023-01-23T04:24:48;4.93;;;2.30;;
24425;SDS011;12611;44.446;26.000;2023-01-23T04:27:16;4.87;;;2.57;;
24425;SDS011;12611;44.446;26.000;2023-01-23T04:29:45;6.83;;;2.63;;
24425;SDS011;12611;44.446;26.000;2023-01-23T04:32:14;6.33;;;2.80;;
24425;SDS011;12611;44.446;26.000;2023-01-23T04:34:42;6.07;;;2.63;;
24425;SDS011;12611;44.446;26.000;2023-01-23T04:37:12;6.33;;;2.17;;
24425;SDS011;12611;44.446;26.000;2023-01-23T04:39:40;4.90;;;2.50;;
24425;SDS011;12611;44.446;26.000;2023-01-23T04:42:09;5.90;;;2.63;;
24425;SDS011;12611;44.446;26.000;2023-01-23T04:44:37;6.17;;;3.10;;
24425;SDS011;12611;44.446;26.000;2023-01-23T04:47:06;4.57;;;2.40;;
24425;SDS011;12611;44.446;26.000;2023-01-23T04:49:35;7.83;;;2.37;;
24425;SDS011;12611;44.446;26.000;2023-01-23T04:52:03;4.50;;;2.17;;
24425;SDS011;12611;44.446;26.000;2023-01-23T04:54:33;5.43;;;2.27;;
24425;SDS011;12611;44.446;26.000;2023-01-23T04:57:01;6.67;;;2.67;;
24425;SDS011;12611;44.446;26.000;2023-01-23T04:59:30;6.22;;;3.17;;
24425;SDS011;12611;44.446;26.000;2023-01-23T05:01:58;4.93;;;2.43;;
24425;SDS011;12611;44.446;26.000;2023-01-23T05:04:29;5.80;;;3.03;;
24425;SDS011;12611;44.446;26.000;2023-01-23T05:06:57;6.10;;;2.50;;
24425;SDS011;12611;44.446;26.000;2023-01-23T05:09:25;5.30;;;2.30;;
24425;SDS011;12611;44.446;26.000;2023-01-23T05:11:55;6.50;;;2.88;;
24425;SDS011;12611;44.446;26.000;2023-01-23T05:14:24;5.53;;;2.40;;
24425;SDS011;12611;44.446;26.000;2023-01-23T05:16:52;4.07;;;1.97;;
24425;SDS011;12611;44.446;26.000;2023-01-23T05:19:20;5.67;;;2.30;;
24425;SDS011;12611;44.446;26.000;2023-01-23T05:21:49;5.53;;;2.30;;
24425;SDS011;12611;44.446;26.000;2023-01-23T05:24:17;4.87;;;2.33;;
24425;SDS011;12611;44.446;26.000;2023-01-23T05:26:45;5.10;;;2.33;;
24425;SDS011;12611;44.446;26.000;2023-01-23T05:29:15;5.93;;;2.30;;
24425;SDS011;12611;44.446;26.000;2023-01-23T05:31:46;5.10;;;2.60;;
24425;SDS011;12611;44.446;26.000;2023-01-23T05:34:15;4.90;;;2.30;;
24425;SDS011;12611;44.446;26.000;2023-01-23T05:36:43;5.47;;;2.90;;
24425;SDS011;12611;44.446;26.000;2023-01-23T05:39:12;7.90;;;2.83;;
24425;SDS011;12611;44.446;26.000;2023-01-23T05:41:40;7.60;;;3.13;;
24425;SDS011;12611;44.446;26.000;2023-01-23T05:44:08;5.53;;;2.50;;
24425;SDS011;12611;44.446;26.000;2023-01-23T05:46:38;5.90;;;2.70;;
24425;SDS011;12611;44.446;26.000;2023-01-23T05:49:06;4.57;;;2.53;;
24425;SDS011;12611;44.446;26.000;2023-01-23T05:51:35;7.80;;;2.80;;
24425;SDS011;12611;44.446;26.000;2023-01-23T05:54:03;3.70;;;2.07;;
24425;SDS011;12611;44.446;26.000;2023-01-23T05:56:32;5.40;;;2.70;;
24425;SDS011;12611;44.446;26.000;2023-01-23T05:59:00;6.40;;;2.30;;
24425;SDS011;12611;44.446;26.000;2023-01-23T06:01:29;4.03;;;1.87;;
24425;SDS011;12611;44.446;26.000;2023-01-23T06:03:58;5.70;;;2.40;;
24425;SDS011;12611;44.446;26.000;2023-01-23T06:06:27;5.50;;;2.33;;
24425;SDS011;12611;44.446;26.000;2023-01-23T06:08:57;5.33;;;2.50;;
24425;SDS011;12611;44.446;26.000;2023-01-23T06:11:25;4.30;;;2.20;;
24425;SDS011;12611;44.446;26.000;2023-01-23T06:13:54;5.77;;;2.57;;
24425;SDS011;12611;44.446;26.000;2023-01-23T06:16:22;4.80;;;2.60;;
24425;SDS011;12611;44.446;26.000;2023-01-23T06:18:50;4.87;;;2.53;;
24425;SDS011;12611;44.446;26.000;2023-01-23T06:21:21;5.03;;;2.40;;
24425;SDS011;12611;44.446;26.000;2023-01-23T06:23:49;5.37;;;3.00;;
24425;SDS011;12611;44.446;26.000;2023-01-23T06:26:17;5.20;;;2.77;;
24425;SDS011;12611;44.446;26.000;2023-01-23T06:28:47;6.27;;;2.60;;
24425;SDS011;12611;44.446;26.000;2023-01-23T06:31:15;7.27;;;3.20;;
24425;SDS011;12611;44.446;26.000;2023-01-23T06:33:47;9.27;;;3.57;;
24425;SDS011;12611;44.446;26.000;2023-01-23T06:36:17;8.23;;;3.92;;
24425;SDS011;12611;44.446;26.000;2023-01-23T06:38:47;7.83;;;3.20;;
24425;SDS011;12611;44.446;26.000;2023-01-23T06:41:15;6.47;;;3.10;;
24425;SDS011;12611;44.446;26.000;2023-01-23T06:43:45;7.37;;;3.60;;
24425;SDS011;12611;44.446;26.000;2023-01-23T06:46:14;6.77;;;3.20;;
24425;SDS011;12611;44.446;26.000;2023-01-23T06:48:42;7.73;;;4.30;;
24425;SDS011;12611;44.446;26.000;2023-01-23T06:51:11;7.87;;;3.57;;
24425;SDS011;12611;44.446;26.000;2023-01-23T06:53:39;9.07;;;4.47;;
24425;SDS011;12611;44.446;26.000;2023-01-23T06:56:09;10.90;;;4.53;;
24425;SDS011;12611;44.446;26.000;2023-01-23T06:58:38;8.37;;;4.77;;
24425;SDS011;12611;44.446;26.000;2023-01-23T07:01:11;12.80;;;5.53;;
24425;SDS011;12611;44.446;26.000;2023-01-23T07:03:48;9.67;;;5.63;;
24425;SDS011;12611;44.446;26.000;2023-01-23T07:06:16;8.03;;;4.13;;
24425;SDS011;12611;44.446;26.000;2023-01-23T07:08:44;8.57;;;3.70;;
24425;SDS011;12611;44.446;26.000;2023-01-23T07:11:14;9.17;;;4.17;;
24425;SDS011;12611;44.446;26.000;2023-01-23T07:13:43;8.60;;;4.07;;
24425;SDS011;12611;44.446;26.000;2023-01-23T07:16:11;6.53;;;3.20;;
24425;SDS011;12611;44.446;26.000;2023-01-23T07:18:39;7.53;;;3.30;;
24425;SDS011;12611;44.446;26.000;2023-01-23T07:21:08;6.37;;;2.97;;
24425;SDS011;12611;44.446;26.000;2023-01-23T07:23:36;6.03;;;2.97;;
24425;SDS011;12611;44.446;26.000;2023-01-23T07:26:05;6.93;;;3.00;;
24425;SDS011;12611;44.446;26.000;2023-01-23T07:28:36;6.93;;;3.23;;
24425;SDS011;12611;44.446;26.000;2023-01-23T07:31:05;7.10;;;3.30;;
24425;SDS011;12611;44.446;26.000;2023-01-23T07:33:33;6.77;;;2.57;;
24425;SDS011;12611;44.446;26.000;2023-01-23T07:36:03;6.35;;;3.10;;
24425;SDS011;12611;44.446;26.000;2023-01-23T07:38:32;4.70;;;2.43;;
24425;SDS011;12611;44.446;26.000;2023-01-23T07:41:02;4.67;;;2.30;;
24425;SDS011;12611;44.446;26.000;2023-01-23T07:43:30;4.73;;;2.57;;
24425;SDS011;12611;44.446;26.000;2023-01-23T07:46:00;6.40;;;3.00;;
24425;SDS011;12611;44.446;26.000;2023-01-23T07:48:29;7.23;;;2.80;;
24425;SDS011;12611;44.446;26.000;2023-01-23T07:51:00;5.83;;;2.90;;
24425;SDS011;12611;44.446;26.000;2023-01-23T07:53:28;7.93;;;3.17;;
24425;SDS011;12611;44.446;26.000;2023-01-23T07:55:57;5.17;;;2.47;;
24425;SDS011;12611;44.446;26.000;2023-01-23T07:58:27;6.50;;;2.90;;
24425;SDS011;12611;44.446;26.000;2023-01-23T08:00:55;6.60;;;3.23;;
24425;SDS011;12611;44.446;26.000;2023-01-23T08:03:25;7.70;;;3.03;;
24425;SDS011;12611;44.446;26.000;2023-01-23T08:05:55;6.33;;;3.20;;
24425;SDS011;12611;44.446;26.000;2023-01-23T08:08:25;9.87;;;4.10;;
24425;SDS011;12611;44.446;26.000;2023-01-23T08:10:53;7.43;;;3.47;;
24425;SDS011;12611;44.446;26.000;2023-01-23T08:13:21;7.70;;;3.50;;
24425;SDS011;12611;44.446;26.000;2023-01-23T08:15:50;10.60;;;4.10;;
24425;SDS011;12611;44.446;26.000;2023-01-23T08:18:19;6.37;;;3.33;;
24425;SDS011;12611;44.446;26.000;2023-01-23T08:20:53;7.47;;;3.40;;
24425;SDS011;12611;44.446;26.000;2023-01-23T08:23:23;5.63;;;2.67;;
24425;SDS011;12611;44.446;26.000;2023-01-23T08:25:52;5.27;;;3.00;;
24425;SDS011;12611;44.446;26.000;2023-01-23T08:28:20;5.47;;;2.63;;
24425;SDS011;12611;44.446;26.000;2023-01-23T08:30:49;5.23;;;3.07;;
24425;SDS011;12611;44.446;26.000;2023-01-23T08:33:18;7.43;;;2.17;;
24425;SDS011;12611;44.446;26.000;2023-01-23T08:35:48;6.67;;;2.80;;
24425;SDS011;12611;44.446;26.000;2023-01-23T08:38:18;4.90;;;2.60;;
24425;SDS011;12611;44.446;26.000;2023-01-23T08:40:47;6.30;;;3.10;;
24425;SDS011;12611;44.446;26.000;2023-01-23T08:43:18;6.80;;;3.10;;
24425;SDS011;12611;44.446;26.000;2023-01-23T08:45:47;5.90;;;3.10;;
24425;SDS011;12611;44.446;26.000;2023-01-23T08:48:16;4.37;;;2.03;;
24425;SDS011;12611;44.446;26.000;2023-01-23T08:50:45;5.03;;;2.77;;
24425;SDS011;12611;44.446;26.000;2023-01-23T08:53:14;6.13;;;3.23;;
24425;SDS011;12611;44.446;26.000;2023-01-23T08:55:44;6.57;;;3.10;;
24425;SDS011;12611;44.446;26.000;2023-01-23T08:58:12;6.33;;;2.90;;
24425;SDS011;12611;44.446;26.000;2023-01-23T09:00:41;4.73;;;2.33;;
24425;SDS011;12611;44.446;26.000;2023-01-23T09:03:09;7.37;;;2.67;;
24425;SDS011;12611;44.446;26.000;2023-01-23T09:05:37;6.73;;;3.27;;
24425;SDS011;12611;44.446;26.000;2023-01-23T09:08:06;5.60;;;2.87;;
24425;SDS011;12611;44.446;26.000;2023-01-23T09:10:34;5.90;;;3.00;;
24425;SDS011;12611;44.446;26.000;2023-01-23T09:13:04;5.40;;;2.70;;
24425;SDS011;12611;44.446;26.000;2023-01-23T09:15:33;5.23;;;2.60;;
24425;SDS011;12611;44.446;26.000;2023-01-23T09:18:01;6.70;;;2.60;;
24425;SDS011;12611;44.446;26.000;2023-01-23T09:20:30;6.63;;;2.57;;
24425;SDS011;12611;44.446;26.000;2023-01-23T09:22:58;3.33;;;1.93;;
24425;SDS011;12611;44.446;26.000;2023-01-23T09:25:27;6.10;;;2.83;;
24425;SDS011;12611;44.446;26.000;2023-01-23T09:27:56;4.03;;;2.20;;
24425;SDS011;12611;44.446;26.000;2023-01-23T09:30:33;4.67;;;2.70;;
24425;SDS011;12611;44.446;26.000;2023-01-23T09:33:02;5.10;;;2.80;;
24425;SDS011;12611;44.446;26.000;2023-01-23T09:35:30;5.13;;;2.60;;
24425;SDS011;12611;44.446;26.000;2023-01-23T09:37:59;4.03;;;2.17;;
24425;SDS011;12611;44.446;26.000;2023-01-23T09:40:30;3.87;;;2.43;;
24425;SDS011;12611;44.446;26.000;2023-01-23T09:43:02;8.20;;;2.73;;
24425;SDS011;12611;44.446;26.000;2023-01-23T09:45:45;4.87;;;2.17;;
24425;SDS011;12611;44.446;26.000;2023-01-23T09:48:20;5.03;;;2.37;;
24425;SDS011;12611;44.446;26.000;2023-01-23T09:50:54;5.07;;;2.00;;
24425;SDS011;12611;44.446;26.000;2023-01-23T09:53:29;4.97;;;2.50;;
24425;SDS011;12611;44.446;26.000;2023-01-23T09:56:03;7.57;;;2.50;;
24425;SDS011;12611;44.446;26.000;2023-01-23T09:58:40;4.27;;;2.33;;
24425;SDS011;12611;44.446;26.000;2023-01-23T10:01:16;5.37;;;2.70;;
24425;SDS011;12611;44.446;26.000;2023-01-23T10:03:45;6.43;;;2.80;;
24425;SDS011;12611;44.446;26.000;2023-01-23T10:06:17;8.23;;;3.20;;
24425;SDS011;12611;44.446;26.000;2023-01-23T10:08:53;3.57;;;1.80;;
24425;SDS011;12611;44.446;26.000;2023-01-23T10:11:37;8.23;;;2.67;;
24425;SDS011;12611;44.446;26.000;2023-01-23T10:14:18;4.97;;;2.17;;
24425;SDS011;12611;44.446;26.000;2023-01-23T10:17:04;6.13;;;1.87;;
24425;SDS011;12611;44.446;26.000;2023-01-23T10:19:45;3.63;;;2.00;;
24425;SDS011;12611;44.446;26.000;2023-01-23T10:22:34;5.67;;;2.30;;
24425;SDS011;12611;44.446;26.000;2023-01-23T10:25:10;4.67;;;2.00;;
24425;SDS011;12611;44.446;26.000;2023-01-23T10:27:43;5.70;;;2.40;;
24425;SDS011;12611;44.446;26.000;2023-01-23T10:30:16;5.57;;;2.80;;
24425;SDS011;12611;44.446;26.000;2023-01-23T10:32:56;5.20;;;2.40;;
24425;SDS011;12611;44.446;26.000;2023-01-23T10:35:28;5.20;;;2.40;;
24425;SDS011;12611;44.446;26.000;2023-01-23T10:38:04;6.87;;;2.83;;
24425;SDS011;12611;44.446;26.000;2023-01-23T10:40:38;7.63;;;2.60;;
24425;SDS011;12611;44.446;26.000;2023-01-23T10:43:29;6.27;;;2.37;;
24425;SDS011;12611;44.446;26.000;2023-01-23T10:45:57;5.13;;;2.10;;
24425;SDS011;12611;44.446;26.000;2023-01-23T10:48:28;3.37;;;1.70;;
24425;SDS011;12611;44.446;26.000;2023-01-23T10:51:23;5.67;;;2.60;;
24425;SDS011;12611;44.446;26.000;2023-01-23T10:54:00;5.97;;;2.40;;
24425;SDS011;12611;44.446;26.000;2023-01-23T10:56:34;7.43;;;2.80;;
24425;SDS011;12611;44.446;26.000;2023-01-23T10:59:15;5.57;;;2.40;;
24425;SDS011;12611;44.446;26.000;2023-01-23T11:01:54;4.80;;;2.13;;
24425;SDS011;12611;44.446;26.000;2023-01-23T11:04:27;4.83;;;2.13;;
24425;SDS011;12611;44.446;26.000;2023-01-23T11:07:00;6.80;;;2.67;;
24425;SDS011;12611;44.446;26.000;2023-01-23T11:09:43;5.23;;;3.03;;
24425;SDS011;12611;44.446;26.000;2023-01-23T11:12:14;7.70;;;3.10;;
24425;SDS011;12611;44.446;26.000;2023-01-23T11:14:45;5.03;;;2.33;;
24425;SDS011;12611;44.446;26.000;2023-01-23T11:17:18;5.97;;;2.60;;
24425;SDS011;12611;44.446;26.000;2023-01-23T11:19:50;7.87;;;2.27;;
24425;SDS011;12611;44.446;26.000;2023-01-23T11:22:25;6.53;;;2.50;;
24425;SDS011;12611;44.446;26.000;2023-01-23T11:24:58;6.23;;;2.30;;
24425;SDS011;12611;44.446;26.000;2023-01-23T11:27:27;4.57;;;2.43;;
24425;SDS011;12611;44.446;26.000;2023-01-23T11:30:15;4.87;;;2.57;;
24425;SDS011;12611;44.446;26.000;2023-01-23T11:32:56;6.10;;;2.80;;
24425;SDS011;12611;44.446;26.000;2023-01-23T11:35:37;5.93;;;2.60;;
24425;SDS011;12611;44.446;26.000;2023-01-23T11:38:18;4.83;;;2.10;;
24425;SDS011;12611;44.446;26.000;2023-01-23T11:40:56;5.30;;;2.53;;
24425;SDS011;12611;44.446;26.000;2023-01-23T11:43:25;6.33;;;3.10;;
24425;SDS011;12611;44.446;26.000;2023-01-23T11:49:10;7.13;;;3.13;;
24425;SDS011;12611;44.446;26.000;2023-01-23T11:51:54;7.80;;;3.50;;
24425;SDS011;12611;44.446;26.000;2023-01-23T11:54:40;7.28;;;3.85;;
24425;SDS011;12611;44.446;26.000;2023-01-23T11:57:21;10.80;;;3.80;;
24425;SDS011;12611;44.446;26.000;2023-01-23T12:00:09;9.10;;;3.73;;
24425;SDS011;12611;44.446;26.000;2023-01-23T12:03:06;8.10;;;3.40;;
24425;SDS011;12611;44.446;26.000;2023-01-23T12:06:08;9.32;;;4.40;;
24425;SDS011;12611;44.446;26.000;2023-01-23T12:08:48;8.67;;;4.03;;
24425;SDS011;12611;44.446;26.000;2023-01-23T12:11:21;10.33;;;4.50;;
24425;SDS011;12611;44.446;26.000;2023-01-23T12:19:38;5.83;;;2.87;;
24425;SDS011;12611;44.446;26.000;2023-01-23T12:22:18;7.23;;;3.47;;
24425;SDS011;12611;44.446;26.000;2023-01-23T12:25:01;7.63;;;3.70;;
24425;SDS011;12611;44.446;26.000;2023-01-23T12:27:39;9.17;;;3.87;;
24425;SDS011;12611;44.446;26.000;2023-01-23T12:30:24;8.37;;;3.10;;
24425;SDS011;12611;44.446;26.000;2023-01-23T12:33:10;6.03;;;3.27;;
24425;SDS011;12611;44.446;26.000;2023-01-23T12:35:50;8.90;;;3.90;;
24425;SDS011;12611;44.446;26.000;2023-01-23T12:38:27;7.83;;;3.57;;
24425;SDS011;12611;44.446;26.000;2023-01-23T12:41:05;8.73;;;3.90;;
24425;SDS011;12611;44.446;26.000;2023-01-23T12:43:41;9.00;;;4.90;;
24425;SDS011;12611;44.446;26.000;2023-01-23T12:46:21;8.70;;;3.03;;
24425;SDS011;12611;44.446;26.000;2023-01-23T12:48:54;6.40;;;3.13;;
24425;SDS011;12611;44.446;26.000;2023-01-23T12:51:31;6.20;;;3.47;;
24425;SDS011;12611;44.446;26.000;2023-01-23T12:54:03;7.27;;;3.50;;
24425;SDS011;12611;44.446;26.000;2023-01-23T12:56:40;10.93;;;3.33;;
24425;SDS011;12611;44.446;26.000;2023-01-23T12:59:13;7.53;;;3.40;;
24425;SDS011;12611;44.446;26.000;2023-01-23T13:01:51;10.00;;;4.53;;
24425;SDS011;12611;44.446;26.000;2023-01-23T13:04:35;8.57;;;3.57;;
24425;SDS011;12611;44.446;26.000;2023-01-23T13:07:19;7.63;;;4.03;;
24425;SDS011;12611;44.446;26.000;2023-01-23T13:10:04;6.00;;;2.53;;
24425;SDS011;12611;44.446;26.000;2023-01-23T13:13:18;7.40;;;3.57;;
24425;SDS011;12611;44.446;26.000;2023-01-23T13:18:38;10.67;;;4.47;;
24425;SDS011;12611;44.446;26.000;2023-01-23T13:21:25;9.70;;;4.00;;
24425;SDS011;12611;44.446;26.000;2023-01-23T13:24:29;9.27;;;4.67;;
24425;SDS011;12611;44.446;26.000;2023-01-23T13:27:36;13.47;;;5.07;;
24425;SDS011;12611;44.446;26.000;2023-01-23T13:36:21;10.97;;;4.07;;
24425;SDS011;12611;44.446;26.000;2023-01-23T13:39:16;13.27;;;4.27;;
24425;SDS011;12611;44.446;26.000;2023-01-23T13:41:51;10.50;;;3.37;;
24425;SDS011;12611;44.446;26.000;2023-01-23T13:47:43;12.83;;;4.40;;
24425;SDS011;12611;44.446;26.000;2023-01-23T13:50:51;10.93;;;3.80;;
24425;SDS011;12611;44.446;26.000;2023-01-23T13:53:42;17.23;;;5.20;;
24425;SDS011;12611;44.446;26.000;2023-01-23T13:56:43;13.80;;;5.13;;
24425;SDS011;12611;44.446;26.000;2023-01-23T13:59:29;13.43;;;5.13;;
24425;SDS011;12611;44.446;26.000;2023-01-23T14:02:17;12.10;;;4.60;;
24425;SDS011;12611;44.446;26.000;2023-01-23T14:05:23;10.23;;;4.20;;
24425;SDS011;12611;44.446;26.000;2023-01-23T14:08:14;10.30;;;4.13;;
24425;SDS011;12611;44.446;26.000;2023-01-23T14:13:46;16.23;;;6.13;;
24425;SDS011;12611;44.446;26.000;2023-01-23T14:16:30;8.93;;;4.57;;
24425;SDS011;12611;44.446;26.000;2023-01-23T14:19:14;12.67;;;4.93;;
24425;SDS011;12611;44.446;26.000;2023-01-23T14:22:05;11.10;;;4.40;;
24425;SDS011;12611;44.446;26.000;2023-01-23T14:24:39;10.87;;;4.30;;
24425;SDS011;12611;44.446;26.000;2023-01-23T14:27:15;8.83;;;4.40;;
24425;SDS011;12611;44.446;26.000;2023-01-23T14:29:57;10.97;;;4.10;;
24425;SDS011;12611;44.446;26.000;2023-01-23T14:32:28;15.10;;;5.10;;
24425;SDS011;12611;44.446;26.000;2023-01-23T14:35:00;8.80;;;4.03;;
24425;SDS011;12611;44.446;26.000;2023-01-23T14:37:35;11.98;;;4.70;;
24425;SDS011;12611;44.446;26.000;2023-01-23T14:40:05;11.50;;;4.50;;
24425;SDS011;12611;44.446;26.000;2023-01-23T14:42:53;11.07;;;4.43;;
24425;SDS011;12611;44.446;26.000;2023-01-23T14:45:28;9.87;;;4.43;;
24425;SDS011;12611;44.446;26.000;2023-01-23T14:47:59;12.30;;;4.63;;
24425;SDS011;12611;44.446;26.000;2023-01-23T14:50:32;13.57;;;5.53;;
24425;SDS011;12611;44.446;26.000;2023-01-23T14:53:01;13.60;;;5.50;;
24425;SDS011;12611;44.446;26.000;2023-01-23T14:55:33;13.37;;;4.73;;
24425;SDS011;12611;44.446;26.000;2023-01-23T14:58:06;9.53;;;4.23;;
24425;SDS011;12611;44.446;26.000;2023-01-23T15:00:41;10.83;;;5.00;;
24425;SDS011;12611;44.446;26.000;2023-01-23T15:03:12;15.37;;;7.27;;
24425;SDS011;12611;44.446;26.000;2023-01-23T15:06:07;10.87;;;5.20;;
24425;SDS011;12611;44.446;26.000;2023-01-23T15:08:39;8.87;;;4.23;;
24425;SDS011;12611;44.446;26.000;2023-01-23T15:11:08;13.70;;;5.10;;
24425;SDS011;12611;44.446;26.000;2023-01-23T15:13:42;13.93;;;5.67;;
24425;SDS011;12611;44.446;26.000;2023-01-23T15:16:14;10.97;;;4.37;;
24425;SDS011;12611;44.446;26.000;2023-01-23T15:18:52;10.10;;;4.50;;
24425;SDS011;12611;44.446;26.000;2023-01-23T15:21:25;11.30;;;4.97;;
24425;SDS011;12611;44.446;26.000;2023-01-23T15:26:57;9.27;;;4.73;;
24425;SDS011;12611;44.446;26.000;2023-01-23T15:29:31;9.37;;;4.30;;
24425;SDS011;12611;44.446;26.000;2023-01-23T15:32:00;10.03;;;4.17;;